In Rescue
 
Open Full Screen Window  High Contrast Mode
Wind Gusting 00 knots
13
April 20, 2024 8:42 AM CDT
Weather Information
Wind Direction
  290 °
Wind Speed
  13 kt (15 mph)
Wind Gust
  00 kt (0 mph)
Altimeter
30.23 in
Visibility
10 SM
Temperature
-01° C
30° F
Dewpoint
-07° C
19° F
Humidity
64%
Sky Condition
Clear
VFR

METAR KBJI 201342Z AUTO 29013KT 10SM CLR M01/M07 A3023 RMK AO2 T10141071

FAA Disclaimer: The data displayed is for advisory purposes only and is not to be used for flight planning or operations.